Time;durP1;ratioP1;P1;durP2;ratioP2;P2;SDS_P1;SDS_P2;PMS_P1;PMS_P2;Temp;Humidity;BMP_temperature;BMP_pressure;BME280_temperature;BME280_humidity;BME280_pressure;Samples;Min_cycle;Max_cycle;Signal;HPM_P1;HPM_P2
2021/12/07 00:01:47;;;;;;;5.00;4.60;;;3.90;99.90;;;;;;5015898;28;20473;-54
2021/12/07 00:04:13;;;;;;;5.00;4.50;;;3.80;99.90;;;;;;5016879;28;20825;-55
2021/12/07 00:06:39;;;;;;;6.77;5.13;;;3.90;99.90;;;;;;5016115;28;20552;-57
2021/12/07 00:09:09;;;;;;;4.83;4.33;;;3.90;99.90;;;;;;5016535;28;20241;-57
2021/12/07 00:11:36;;;;;;;5.37;4.80;;;4.00;99.90;;;;;;5016124;28;20474;-55
2021/12/07 00:14:11;;;;;;;4.60;4.20;;;4.00;99.90;;;;;;5017044;28;20426;-53
2021/12/07 00:16:37;;;;;;;5.37;4.87;;;3.90;99.90;;;;;;5011800;28;20419;-53
2021/12/07 00:19:03;;;;;;;5.10;4.70;;;4.10;99.90;;;;;;4979487;28;20426;-52
2021/12/07 00:21:29;;;;;;;4.63;4.13;;;4.00;99.90;;;;;;4996370;28;20432;-53
2021/12/07 00:23:55;;;;;;;4.70;4.30;;;4.10;99.90;;;;;;4996587;28;20518;-51
2021/12/07 00:26:21;;;;;;;5.17;4.43;;;4.10;99.90;;;;;;4996705;28;20948;-56
2021/12/07 00:28:49;;;;;;;5.67;4.97;;;4.10;99.90;;;;;;4978356;28;20209;-53
2021/12/07 00:31:24;;;;;;;4.20;3.80;;;4.20;99.90;;;;;;4996734;28;20905;-52
2021/12/07 00:34:05;;;;;;;5.20;4.70;;;4.20;99.90;;;;;;4997102;28;20395;-53
2021/12/07 00:36:31;;;;;;;5.20;4.70;;;4.20;99.90;;;;;;4981742;28;20483;-51
2021/12/07 00:38:56;;;;;;;5.30;4.80;;;4.20;99.90;;;;;;4996664;28;20488;-51
2021/12/07 00:41:22;;;;;;;5.40;4.60;;;4.30;99.90;;;;;;4979880;28;20720;-51
2021/12/07 00:43:48;;;;;;;5.10;4.60;;;4.30;99.90;;;;;;4992922;28;20657;-50
2021/12/07 00:46:14;;;;;;;5.50;5.00;;;4.40;99.90;;;;;;5016296;28;20222;-53
2021/12/07 00:48:39;;;;;;;5.00;4.30;;;4.40;99.90;;;;;;4996610;28;20673;-51
2021/12/07 00:51:05;;;;;;;4.80;4.13;;;4.30;99.90;;;;;;5016186;28;20188;-51
2021/12/07 00:53:31;;;;;;;4.77;4.27;;;4.40;99.90;;;;;;4997369;28;20715;-51
2021/12/07 00:56:00;;;;;;;5.20;4.60;;;4.50;99.90;;;;;;4999217;28;20660;-53
2021/12/07 00:58:27;;;;;;;5.10;4.30;;;4.40;99.90;;;;;;4997528;28;20210;-55
2021/12/07 01:00:58;;;;;;;4.53;4.13;;;4.50;99.90;;;;;;4997987;28;20427;-55
2021/12/07 01:03:26;;;;;;;4.67;4.20;;;4.30;99.90;;;;;;4998206;28;20981;-55
2021/12/07 01:06:02;;;;;;;4.50;4.10;;;4.30;99.90;;;;;;4998267;28;20414;-53
2021/12/07 01:24:55;;;;;;;4.70;4.30;;;3.80;99.90;;;;;;5015320;28;20756;-52
2021/12/07 01:27:22;;;;;;;4.53;4.13;;;3.90;99.90;;;;;;5014674;28;20862;-53
2021/12/07 01:30:06;;;;;;;5.30;4.80;;;3.70;99.90;;;;;;5015139;28;21017;-52
2021/12/07 01:46:09;;;;;;;5.33;4.83;;;3.70;99.90;;;;;;4978912;28;20507;-54
2021/12/07 01:59:36;;;;;;;4.30;3.63;;;3.90;99.90;;;;;;4969819;28;20468;-53
2021/12/07 02:02:08;;;;;;;4.47;4.07;;;4.00;99.90;;;;;;4998481;28;20442;-53
2021/12/07 02:04:34;;;;;;;4.63;4.13;;;4.00;99.90;;;;;;4997557;28;20387;-56
2021/12/07 02:06:59;;;;;;;4.30;3.90;;;3.90;99.90;;;;;;4996209;28;20426;-54
2021/12/07 02:09:25;;;;;;;5.10;4.60;;;4.00;99.90;;;;;;4980799;28;20461;-56
2021/12/07 02:11:58;;;;;;;4.80;4.27;;;4.10;99.90;;;;;;4996007;28;20692;-52
2021/12/07 02:14:24;;;;;;;5.30;4.70;;;4.00;99.90;;;;;;5014305;28;20384;-55
2021/12/07 02:16:54;;;;;;;4.50;4.10;;;4.00;99.90;;;;;;4993839;28;20430;-55
2021/12/07 02:19:21;;;;;;;5.20;4.70;;;4.10;99.90;;;;;;5020522;28;20562;-53
2021/12/07 02:21:46;;;;;;;4.53;4.13;;;4.10;99.90;;;;;;5029022;28;20423;-54
2021/12/07 02:24:12;;;;;;;4.20;3.80;;;4.20;99.90;;;;;;4995884;28;20430;-57
2021/12/07 02:26:38;;;;;;;4.30;3.90;;;4.30;99.90;;;;;;5014470;28;20176;-58
2021/12/07 02:29:05;;;;;;;6.53;4.90;;;4.30;99.90;;;;;;5013771;28;20207;-57
2021/12/07 02:31:31;;;;;;;4.40;4.00;;;4.40;99.90;;;;;;5019516;23;20223;-55
2021/12/07 02:33:58;;;;;;;4.43;4.03;;;4.30;99.90;;;;;;5009012;28;20446;-56
2021/12/07 02:36:24;;;;;;;3.00;2.80;;;4.10;99.90;;;;;;5018341;28;20820;-55
2021/12/07 02:38:49;;;;;;;4.50;3.13;;;4.30;99.90;;;;;;5015830;28;20411;-59
2021/12/07 02:41:15;;;;;;;3.50;3.20;;;4.30;99.90;;;;;;5013972;28;20521;-56
2021/12/07 02:43:41;;;;;;;3.90;3.60;;;4.50;99.90;;;;;;4995573;28;20172;-56
2021/12/07 02:46:07;;;;;;;3.87;3.10;;;4.50;99.90;;;;;;5013845;28;20452;-60
2021/12/07 02:48:33;;;;;;;3.63;3.33;;;4.50;99.90;;;;;;5013454;28;20434;-58
2021/12/07 02:50:59;;;;;;;3.20;2.77;;;4.50;99.90;;;;;;5013183;28;20644;-57
2021/12/07 02:53:28;;;;;;;4.03;3.37;;;4.50;99.90;;;;;;5014198;28;20407;-57
2021/12/07 02:55:57;;;;;;;3.47;2.87;;;4.70;99.90;;;;;;4994634;28;20457;-58
2021/12/07 02:58:23;;;;;;;3.30;3.00;;;4.70;99.90;;;;;;5014233;28;20411;-55
2021/12/07 03:00:59;;;;;;;2.73;2.53;;;4.70;99.90;;;;;;5000236;28;20422;-59
2021/12/07 03:03:25;;;;;;;6.07;3.33;;;4.40;99.90;;;;;;4999549;28;20415;-59
2021/12/07 03:27:37;;;;;;;2.17;1.97;;;4.60;99.90;;;;;;5013296;28;20430;-60
2021/12/07 03:30:07;;;;;;;2.53;2.03;;;4.80;99.90;;;;;;5013418;28;20588;-58
2021/12/07 03:32:32;;;;;;;2.33;2.10;;;4.90;99.90;;;;;;5012961;28;20951;-60
2021/12/07 03:34:58;;;;;;;3.10;2.00;;;4.70;99.90;;;;;;5013454;28;20418;-59
2021/12/07 03:37:24;;;;;;;2.53;2.33;;;4.80;99.90;;;;;;5012313;28;20164;-59
2021/12/07 03:39:49;;;;;;;1.73;1.63;;;4.80;99.90;;;;;;5013039;28;20246;-60
2021/12/07 03:42:15;;;;;;;2.60;2.37;;;4.90;99.90;;;;;;5012579;28;20200;-61
2021/12/07 03:44:41;;;;;;;1.97;1.87;;;4.90;99.90;;;;;;4993258;28;20173;-60
2021/12/07 03:47:07;;;;;;;3.57;3.27;;;4.90;99.90;;;;;;4993899;28;20912;-59
2021/12/07 03:49:32;;;;;;;2.60;2.40;;;4.90;99.90;;;;;;5009800;28;20706;-59
2021/12/07 03:51:58;;;;;;;3.23;2.93;;;4.90;99.90;;;;;;5012887;28;20242;-56
2021/12/07 03:54:24;;;;;;;2.20;2.00;;;4.70;99.90;;;;;;5012488;28;20168;-60
2021/12/07 03:56:49;;;;;;;3.30;3.00;;;4.80;99.90;;;;;;5012596;28;20169;-59
2021/12/07 03:59:15;;;;;;;3.17;2.70;;;4.90;99.90;;;;;;5012113;28;20164;-58
2021/12/07 04:01:41;;;;;;;3.53;2.53;;;4.70;99.90;;;;;;4994217;28;20188;-59
2021/12/07 04:04:07;;;;;;;1.67;1.57;;;4.90;99.90;;;;;;5002792;28;20419;-60
2021/12/07 04:06:33;;;;;;;2.83;2.03;;;4.60;99.90;;;;;;4999808;28;20828;-60
2021/12/07 04:08:59;;;;;;;2.57;2.30;;;4.70;99.90;;;;;;5012980;28;20192;-60
2021/12/07 04:11:24;;;;;;;8.60;5.80;;;4.70;99.90;;;;;;5011596;28;20192;-59
2021/12/07 04:13:50;;;;;;;4.53;3.20;;;4.60;99.90;;;;;;5012963;28;20915;-59
2021/12/07 04:16:17;;;;;;;4.00;3.20;;;4.80;99.90;;;;;;5012933;28;20180;-58
2021/12/07 04:18:43;;;;;;;4.17;3.77;;;4.90;99.90;;;;;;5011484;28;20259;-58
2021/12/07 04:21:09;;;;;;;4.70;3.33;;;4.90;99.90;;;;;;5011976;28;20542;-59
2021/12/07 04:23:36;;;;;;;3.83;2.70;;;5.00;99.90;;;;;;5015808;28;20403;-58
2021/12/07 04:26:05;;;;;;;2.80;2.40;;;4.90;99.90;;;;;;5016590;28;20775;-59
2021/12/07 04:28:30;;;;;;;2.73;2.40;;;5.20;99.90;;;;;;5014970;28;20465;-58
2021/12/07 04:30:56;;;;;;;2.53;2.30;;;5.30;99.90;;;;;;5016218;28;20434;-55
2021/12/07 04:33:21;;;;;;;1.47;1.20;;;5.40;99.90;;;;;;5016495;28;20160;-59
2021/12/07 04:35:50;;;;;;;1.40;1.30;;;5.30;99.90;;;;;;5014869;28;20176;-58
2021/12/07 04:38:17;;;;;;;3.90;1.40;;;5.30;99.90;;;;;;5015223;28;20211;-59
2021/12/07 04:40:43;;;;;;;2.97;1.50;;;5.30;99.90;;;;;;5015802;28;20446;-59
2021/12/07 04:43:10;;;;;;;4.70;1.90;;;5.40;99.90;;;;;;5015945;28;20775;-59
2021/12/07 04:45:51;;;;;;;2.10;1.67;;;5.30;99.90;;;;;;5015171;28;20590;-59
2021/12/07 04:59:12;;;;;;;1.50;1.40;;;5.60;99.90;;;;;;5014932;28;20626;-59
2021/12/07 05:01:38;;;;;;;1.83;1.30;;;5.50;99.90;;;;;;5015344;28;20510;-59
2021/12/07 05:04:11;;;;;;;2.70;2.00;;;5.40;99.90;;;;;;5015009;28;20345;-58
2021/12/07 05:06:44;;;;;;;2.03;1.83;;;5.50;99.90;;;;;;5015353;28;20482;-58
2021/12/07 05:14:30;;;;;;;2.67;1.60;;;5.40;99.90;;;;;;5016149;28;20480;-59
2021/12/07 05:17:14;;;;;;;2.27;2.07;;;5.50;99.90;;;;;;5014128;28;20553;-58
2021/12/07 05:38:45;;;;;;;2.70;1.93;;;4.90;99.90;;;;;;4992138;28;20465;-59
2021/12/07 05:41:10;;;;;;;2.40;1.87;;;4.80;99.90;;;;;;5015191;28;20403;-56
2021/12/07 05:43:37;;;;;;;3.40;2.00;;;4.60;99.90;;;;;;5014262;28;20235;-59
2021/12/07 05:46:03;;;;;;;1.67;1.57;;;4.60;99.90;;;;;;5014851;28;20254;-59
2021/12/07 05:48:29;;;;;;;2.77;1.60;;;4.40;99.90;;;;;;5014195;28;20419;-59
2021/12/07 05:50:55;;;;;;;3.93;2.10;;;4.40;99.90;;;;;;5014730;28;20434;-54
2021/12/07 05:53:20;;;;;;;1.97;1.77;;;4.40;99.90;;;;;;5014546;28;20633;-60
2021/12/07 05:55:46;;;;;;;10.17;2.30;;;4.50;99.90;;;;;;4997151;28;20418;-56
2021/12/07 05:58:13;;;;;;;2.47;1.97;;;4.50;99.90;;;;;;5013409;28;20172;-59
2021/12/07 06:00:43;;;;;;;2.57;1.90;;;4.60;99.90;;;;;;5014678;28;20450;-58
2021/12/07 06:03:10;;;;;;;8.40;2.60;;;4.60;99.90;;;;;;5013301;28;20435;-57
2021/12/07 06:05:37;;;;;;;4.20;1.70;;;4.50;99.90;;;;;;5014613;28;20445;-56
2021/12/07 06:08:03;;;;;;;4.07;1.70;;;4.60;99.90;;;;;;5013184;28;20506;-58
2021/12/07 06:10:30;;;;;;;3.90;2.07;;;4.80;99.90;;;;;;5014426;28;20946;-59
2021/12/07 06:12:55;;;;;;;2.70;2.03;;;4.70;99.90;;;;;;5005958;28;20896;-59
2021/12/07 06:15:23;;;;;;;5.47;2.00;;;4.70;99.90;;;;;;4994381;28;20407;-60
2021/12/07 06:17:51;;;;;;;3.40;2.50;;;4.60;99.90;;;;;;5000464;28;20164;-58
2021/12/07 06:20:17;;;;;;;5.80;2.53;;;4.90;99.90;;;;;;5014020;28;20415;-58
2021/12/07 06:22:43;;;;;;;3.63;2.13;;;4.80;99.90;;;;;;5013606;28;20518;-59
2021/12/07 06:25:10;;;;;;;7.73;2.53;;;4.90;99.90;;;;;;5014126;28;20411;-59
2021/12/07 06:27:38;;;;;;;1.67;1.57;;;4.90;99.90;;;;;;5013529;28;20575;-59
2021/12/07 06:30:05;;;;;;;3.13;1.97;;;5.00;99.90;;;;;;5013657;28;20460;-59
2021/12/07 06:32:31;;;;;;;5.60;2.10;;;5.10;99.90;;;;;;5013691;28;20447;-60
2021/12/07 06:34:56;;;;;;;4.03;2.23;;;5.10;99.90;;;;;;5013167;28;20436;-58
2021/12/07 06:37:22;;;;;;;3.17;1.80;;;5.10;99.90;;;;;;4996331;28;20191;-59
2021/12/07 06:39:48;;;;;;;4.20;2.80;;;5.20;99.90;;;;;;5014348;28;20187;-58
2021/12/07 06:42:13;;;;;;;3.40;2.00;;;5.20;99.90;;;;;;5014156;28;20192;-59
2021/12/07 06:44:39;;;;;;;8.23;2.50;;;5.30;99.90;;;;;;5013097;28;20168;-57
2021/12/07 06:47:05;;;;;;;3.80;2.30;;;5.40;99.90;;;;;;4996156;28;20199;-59
2021/12/07 06:49:31;;;;;;;2.70;2.20;;;5.50;99.90;;;;;;5012958;28;20555;-55
2021/12/07 06:51:58;;;;;;;6.13;2.40;;;5.50;99.90;;;;;;5013994;28;20493;-59
2021/12/07 06:54:24;;;;;;;3.80;2.10;;;5.40;99.90;;;;;;5013742;28;20409;-58
2021/12/07 06:56:52;;;;;;;13.77;7.90;;;5.60;99.90;;;;;;5014351;28;20395;-59
2021/12/07 06:59:18;;;;;;;7.27;4.30;;;5.70;99.90;;;;;;5012400;28;20434;-60
2021/12/07 07:01:44;;;;;;;7.27;3.20;;;5.70;99.90;;;;;;5013828;28;20427;-60
2021/12/07 07:04:12;;;;;;;5.17;2.70;;;5.90;99.90;;;;;;5012416;28;20919;-60
2021/12/07 07:06:38;;;;;;;6.20;2.87;;;5.90;99.90;;;;;;5013701;28;20752;-60
2021/12/07 07:09:04;;;;;;;5.40;3.20;;;5.90;99.90;;;;;;5012601;28;20458;-58
2021/12/07 07:11:30;;;;;;;5.90;3.77;;;5.90;99.90;;;;;;5013164;28;20822;-59
2021/12/07 07:13:56;;;;;;;7.00;4.03;;;5.90;99.90;;;;;;5012712;28;20506;-58
2021/12/07 07:16:22;;;;;;;3.87;3.30;;;5.80;99.90;;;;;;5012751;28;20485;-60
2021/12/07 07:18:47;;;;;;;5.80;3.00;;;5.80;99.90;;;;;;5013336;28;20402;-58
2021/12/07 07:21:13;;;;;;;4.77;2.53;;;5.80;99.90;;;;;;5012358;28;20183;-60
2021/12/07 07:23:39;;;;;;;4.10;2.40;;;5.70;99.90;;;;;;5013224;28;20179;-60
2021/12/07 07:26:06;;;;;;;8.87;3.10;;;5.80;99.90;;;;;;5012790;28;20578;-59
2021/12/07 07:28:34;;;;;;;3.77;2.20;;;5.60;99.90;;;;;;5012557;28;20203;-60
2021/12/07 07:31:04;;;;;;;6.00;2.67;;;5.50;99.90;;;;;;5012374;28;20768;-59
2021/12/07 07:33:29;;;;;;;5.03;2.27;;;5.60;99.90;;;;;;4981070;28;20431;-58
2021/12/07 07:35:55;;;;;;;3.80;1.73;;;5.50;99.90;;;;;;5004378;28;20938;-60
2021/12/07 07:38:21;;;;;;;6.83;3.20;;;5.50;99.90;;;;;;5013244;28;20581;-60
2021/12/07 07:40:48;;;;;;;4.13;2.33;;;5.60;99.90;;;;;;5012353;28;20172;-59
2021/12/07 07:43:16;;;;;;;2.90;1.80;;;5.50;99.90;;;;;;5013178;28;20423;-60
2021/12/07 07:45:43;;;;;;;7.30;2.70;;;5.50;99.90;;;;;;5012286;28;20438;-60
2021/12/07 07:48:09;;;;;;;3.13;2.00;;;5.30;99.90;;;;;;5013401;28;20407;-60
2021/12/07 07:50:35;;;;;;;5.40;2.30;;;5.40;99.90;;;;;;5011907;28;20445;-59
2021/12/07 07:53:01;;;;;;;4.80;2.47;;;5.50;99.90;;;;;;5013174;28;20188;-60
2021/12/07 07:55:27;;;;;;;4.23;2.10;;;5.70;99.90;;;;;;5012717;28;20453;-57
2021/12/07 07:57:53;;;;;;;5.00;2.37;;;5.90;99.90;;;;;;5015002;28;20172;-60
2021/12/07 08:00:21;;;;;;;6.67;2.47;;;5.80;99.90;;;;;;5016938;28;20406;-61
2021/12/07 08:02:47;;;;;;;3.90;2.27;;;5.70;99.90;;;;;;5016087;28;20195;-59
2021/12/07 08:05:14;;;;;;;4.63;2.40;;;5.70;99.90;;;;;;5016890;28;20410;-59
2021/12/07 08:07:40;;;;;;;8.03;2.53;;;5.90;99.90;;;;;;5016222;28;20461;-60
2021/12/07 08:10:08;;;;;;;3.80;2.70;;;6.00;99.90;;;;;;5015920;28;20451;-60
2021/12/07 08:12:33;;;;;;;5.93;2.00;;;5.90;99.90;;;;;;5016003;28;20466;-60
2021/12/07 08:14:59;;;;;;;4.90;2.30;;;5.80;99.90;;;;;;5016218;28;20423;-60
2021/12/07 08:17:25;;;;;;;2.63;2.43;;;5.90;99.90;;;;;;5013470;28;20168;-60
2021/12/07 08:19:51;;;;;;;4.83;1.80;;;6.00;99.90;;;;;;5005573;28;20207;-60
2021/12/07 08:22:16;;;;;;;5.67;2.87;;;5.90;99.90;;;;;;4998218;28;20548;-60
2021/12/07 08:24:42;;;;;;;4.80;2.40;;;5.80;99.90;;;;;;4998582;28;20526;-58
2021/12/07 08:27:08;;;;;;;4.20;2.30;;;5.80;99.90;;;;;;5015620;28;20172;-60
2021/12/07 08:29:34;;;;;;;6.13;2.23;;;5.70;99.90;;;;;;5016609;28;20457;-60
2021/12/07 08:31:59;;;;;;;5.73;2.27;;;5.70;99.90;;;;;;5037555;23;20277;-52
2021/12/07 08:34:25;;;;;;;3.47;2.43;;;5.60;99.90;;;;;;4971498;28;20188;-55
2021/12/07 08:36:51;;;;;;;5.83;2.50;;;5.60;99.90;;;;;;5015515;28;20650;-52
2021/12/07 08:39:16;;;;;;;5.07;2.67;;;5.70;99.90;;;;;;5015000;28;20176;-55
2021/12/07 08:41:42;;;;;;;8.33;2.40;;;5.60;99.90;;;;;;4981151;28;20176;-53
2021/12/07 08:44:08;;;;;;;5.50;2.37;;;5.60;99.90;;;;;;4997993;28;20222;-57
2021/12/07 08:46:34;;;;;;;3.13;2.40;;;5.80;99.90;;;;;;4998049;28;20174;-55
2021/12/07 08:49:00;;;;;;;6.30;2.07;;;5.90;99.90;;;;;;5016133;28;20451;-56
2021/12/07 08:51:26;;;;;;;10.70;2.63;;;5.80;99.90;;;;;;5015369;28;20169;-54
2021/12/07 08:54:19;;;;;;;3.17;2.30;;;5.90;99.90;;;;;;4998011;28;20704;-56
2021/12/07 09:02:06;;;;;;;5.10;2.37;;;6.20;99.90;;;;;;5015517;28;20842;-54
2021/12/07 09:04:31;;;;;;;6.40;2.20;;;6.40;99.90;;;;;;4980992;28;20423;-56
2021/12/07 09:06:57;;;;;;;2.23;1.50;;;6.20;99.90;;;;;;4998188;28;20478;-51
2021/12/07 09:09:23;;;;;;;2.30;1.80;;;6.10;99.90;;;;;;4996227;28;20882;-56
2021/12/07 09:11:49;;;;;;;5.70;1.97;;;6.20;99.90;;;;;;4998044;28;20473;-52
2021/12/07 09:14:17;;;;;;;4.37;2.00;;;6.30;99.90;;;;;;4996734;28;20179;-55
2021/12/07 09:16:44;;;;;;;5.60;2.07;;;6.00;99.90;;;;;;4998267;28;20417;-55
2021/12/07 09:19:10;;;;;;;7.50;1.90;;;6.30;99.90;;;;;;4997708;28;20492;-55
2021/12/07 09:21:36;;;;;;;4.20;2.20;;;6.40;99.90;;;;;;4997313;28;20886;-57
2021/12/07 09:24:02;;;;;;;7.00;2.00;;;6.60;99.90;;;;;;5014929;28;20923;-53
2021/12/07 09:26:27;;;;;;;4.40;2.10;;;6.70;99.90;;;;;;5015577;28;20455;-55
2021/12/07 09:28:53;;;;;;;4.80;1.90;;;6.90;99.90;;;;;;4980218;28;20487;-57
2021/12/07 09:31:19;;;;;;;5.63;2.30;;;6.70;99.90;;;;;;4997701;28;20162;-57
2021/12/07 09:33:45;;;;;;;4.83;1.50;;;6.70;99.90;;;;;;4996388;28;20263;-57
2021/12/07 09:36:13;;;;;;;8.33;2.50;;;6.90;99.90;;;;;;5014986;28;20409;-56
2021/12/07 09:38:41;;;;;;;2.97;1.70;;;6.80;99.90;;;;;;5014877;28;20227;-56
2021/12/07 09:41:08;;;;;;;5.50;2.63;;;6.80;99.90;;;;;;5012582;28;20489;-57
2021/12/07 09:43:36;;;;;;;4.93;2.10;;;6.80;99.90;;;;;;4995247;28;20941;-54
2021/12/07 09:46:04;;;;;;;4.57;2.10;;;6.70;99.90;;;;;;4973861;28;20422;-57
2021/12/07 09:48:30;;;;;;;5.90;3.13;;;6.80;99.90;;;;;;4997497;28;20824;-55
2021/12/07 09:50:57;;;;;;;3.67;1.73;;;6.70;99.90;;;;;;4980382;28;20473;-54
2021/12/07 09:53:25;;;;;;;7.97;2.23;;;6.60;99.90;;;;;;4997268;28;20455;-53
2021/12/07 09:55:51;;;;;;;4.90;3.27;;;6.60;99.90;;;;;;4997025;28;20510;-55
2021/12/07 09:58:19;;;;;;;4.30;2.23;;;6.70;99.90;;;;;;5014522;28;20413;-56
2021/12/07 10:00:46;;;;;;;6.10;2.17;;;6.60;99.90;;;;;;4980962;28;20435;-57
2021/12/07 10:03:13;;;;;;;6.10;2.00;;;6.60;99.90;;;;;;4980697;28;20800;-53
2021/12/07 10:05:41;;;;;;;3.13;1.57;;;6.40;99.90;;;;;;4996005;28;20443;-56
2021/12/07 10:08:08;;;;;;;3.90;1.73;;;6.40;99.90;;;;;;4997447;28;20431;-57
2021/12/07 10:10:40;;;;;;;5.40;2.20;;;6.60;99.90;;;;;;4996440;28;20995;-57
2021/12/07 10:13:08;;;;;;;3.57;1.70;;;6.60;99.90;;;;;;4996068;28;20448;-57
2021/12/07 10:15:34;;;;;;;4.20;2.10;;;6.70;99.90;;;;;;5013927;28;20400;-55
2021/12/07 10:18:00;;;;;;;4.80;2.37;;;6.80;99.90;;;;;;5013493;28;20450;-57
2021/12/07 10:20:39;;;;;;;4.20;2.23;;;6.80;99.90;;;;;;5014625;28;20502;-56
2021/12/07 10:23:14;;;;;;;5.80;1.97;;;6.90;99.90;;;;;;4995872;28;20323;-53
2021/12/07 10:25:41;;;;;;;4.30;2.00;;;7.20;99.90;;;;;;5013413;28;20404;-57
2021/12/07 10:28:40;;;;;;;6.40;2.17;;;7.60;99.90;;;;;;4996445;28;20933;-56
2021/12/07 10:31:08;;;;;;;4.90;2.13;;;7.80;99.90;;;;;;4995503;28;20393;-55
2021/12/07 10:33:57;;;;;;;3.10;1.67;;;7.70;99.90;;;;;;4976671;28;20448;-56
2021/12/07 10:36:31;;;;;;;5.00;2.00;;;7.70;99.90;;;;;;4984376;28;20455;-57
2021/12/07 10:39:07;;;;;;;5.30;2.17;;;7.70;99.90;;;;;;4996013;28;20381;-56
2021/12/07 10:41:36;;;;;;;3.90;2.50;;;7.60;99.90;;;;;;5013371;28;20415;-56
2021/12/07 10:44:09;;;;;;;3.87;2.03;;;7.40;99.90;;;;;;4996531;28;20425;-56
2021/12/07 10:46:45;;;;;;;6.90;1.70;;;7.50;99.90;;;;;;4976243;28;20990;-56
2021/12/07 10:49:15;;;;;;;4.43;1.70;;;7.60;99.90;;;;;;4962203;28;20426;-57
2021/12/07 10:51:54;;;;;;;6.40;1.93;;;7.90;99.90;;;;;;4994990;28;20435;-57
2021/12/07 10:54:22;;;;;;;3.27;1.63;;;8.80;99.90;;;;;;4997043;28;20384;-57
2021/12/07 10:56:50;;;;;;;3.83;1.97;;;10.90;99.90;;;;;;4996117;28;20455;-56
2021/12/07 10:59:16;;;;;;;5.30;1.30;;;11.70;99.50;;;;;;5013492;28;20415;-54
2021/12/07 11:01:48;;;;;;;3.70;1.50;;;12.00;97.50;;;;;;5013141;28;20781;-55
2021/12/07 11:04:33;;;;;;;3.97;1.40;;;12.70;96.60;;;;;;4996770;28;20938;-55
2021/12/07 11:07:18;;;;;;;2.90;1.60;;;13.10;95.50;;;;;;5013353;28;20399;-57
2021/12/07 11:10:05;;;;;;;3.50;1.60;;;13.80;93.90;;;;;;5013786;28;20541;-53
2021/12/07 11:12:39;;;;;;;4.00;1.30;;;13.80;91.90;;;;;;4997191;28;20431;-55
2021/12/07 11:15:13;;;;;;;8.03;5.40;;;13.60;91.60;;;;;;4996352;28;20412;-56
2021/12/07 11:17:38;;;;;;;9.10;4.60;;;13.50;91.20;;;;;;5013131;28;20813;-56
2021/12/07 11:20:05;;;;;;;3.30;2.30;;;13.30;90.40;;;;;;4996153;28;20439;-56
2021/12/07 11:22:39;;;;;;;4.77;1.70;;;14.00;91.10;;;;;;4995263;28;20198;-57
2021/12/07 11:25:05;;;;;;;4.50;1.50;;;14.80;88.80;;;;;;4994408;28;20865;-57
2021/12/07 11:30:26;;;;;;;2.90;1.33;;;13.60;88.30;;;;;;4999140;28;20483;-56
2021/12/07 11:32:55;;;;;;;2.10;1.30;;;13.30;88.40;;;;;;4997248;28;20471;-57
2021/12/07 11:35:33;;;;;;;3.30;1.37;;;13.80;89.30;;;;;;5017088;28;20418;-52
2021/12/07 11:38:03;;;;;;;1.90;1.20;;;13.40;87.00;;;;;;4999355;28;20451;-53
2021/12/07 11:40:39;;;;;;;3.67;1.43;;;12.40;90.10;;;;;;4999779;28;20414;-53
2021/12/07 11:43:18;;;;;;;3.20;1.30;;;12.90;91.30;;;;;;4995933;28;20439;-56
2021/12/07 11:45:45;;;;;;;3.90;1.40;;;13.90;89.60;;;;;;4999828;28;20927;-57
2021/12/07 11:48:12;;;;;;;2.47;1.33;;;13.90;87.50;;;;;;5015992;28;20484;-57
2021/12/07 11:50:49;;;;;;;3.50;1.53;;;13.10;87.80;;;;;;4999482;28;20439;-54
2021/12/07 11:53:22;;;;;;;3.10;0.97;;;11.80;91.40;;;;;;4998691;28;20823;-56
2021/12/07 11:55:51;;;;;;;3.33;1.70;;;10.70;93.00;;;;;;4982567;28;20452;-56
2021/12/07 11:58:17;;;;;;;3.17;1.30;;;9.70;94.70;;;;;;4982226;28;20827;-57
2021/12/07 12:00:55;;;;;;;4.90;1.63;;;10.60;95.00;;;;;;5016835;28;20819;-57
2021/12/07 12:03:23;;;;;;;4.07;1.77;;;11.80;93.00;;;;;;4998488;28;20433;-54
2021/12/07 12:05:50;;;;;;;4.97;1.67;;;11.40;93.00;;;;;;4999305;28;20403;-57
2021/12/07 12:08:19;;;;;;;3.50;1.37;;;10.50;93.60;;;;;;4999263;28;20955;-56
2021/12/07 12:10:52;;;;;;;7.27;1.80;;;10.30;95.00;;;;;;5015264;28;20540;-57
2021/12/07 12:13:40;;;;;;;4.80;1.70;;;11.10;94.80;;;;;;5016531;28;20415;-51
2021/12/07 12:16:32;;;;;;;4.40;1.50;;;13.10;93.60;;;;;;5017039;28;20387;-57
2021/12/07 12:19:18;;;;;;;3.77;1.70;;;13.10;92.50;;;;;;4963055;28;20404;-57
2021/12/07 12:21:53;;;;;;;7.30;1.77;;;12.60;92.60;;;;;;4994746;28;20427;-57
2021/12/07 12:24:24;;;;;;;2.33;1.27;;;11.70;94.10;;;;;;5005405;28;20534;-55
2021/12/07 12:27:08;;;;;;;3.30;1.17;;;11.30;95.20;;;;;;5017375;28;20413;-54
2021/12/07 12:29:36;;;;;;;7.03;1.40;;;11.80;94.50;;;;;;5015797;28;20853;-52
2021/12/07 12:32:01;;;;;;;4.90;1.10;;;11.50;95.10;;;;;;5016576;28;20447;-56
2021/12/07 12:34:32;;;;;;;3.60;1.57;;;10.90;94.90;;;;;;4997667;28;20843;-56
2021/12/07 12:37:04;;;;;;;3.00;1.53;;;10.10;96.40;;;;;;4983184;28;20414;-52
2021/12/07 12:40:01;;;;;;;4.10;1.43;;;9.80;97.80;;;;;;5015957;28;20419;-53
2021/12/07 12:42:44;;;;;;;3.50;1.30;;;9.70;98.90;;;;;;4989528;28;20443;-54
2021/12/07 12:45:21;;;;;;;4.60;1.40;;;9.40;99.00;;;;;;5003607;28;20433;-54
2021/12/07 12:48:08;;;;;;;5.20;2.03;;;9.30;99.50;;;;;;5014972;28;20461;-52
2021/12/07 12:50:53;;;;;;;6.27;2.60;;;9.20;99.40;;;;;;5015853;28;20795;-52
2021/12/07 12:53:32;;;;;;;5.77;1.80;;;9.10;99.80;;;;;;4998919;28;20435;-58
2021/12/07 12:55:59;;;;;;;3.43;1.57;;;9.20;99.90;;;;;;5015127;28;20410;-55
2021/12/07 12:58:28;;;;;;;5.30;1.60;;;9.10;99.90;;;;;;5015912;28;20407;-55
2021/12/07 13:01:15;;;;;;;4.77;1.43;;;9.10;99.80;;;;;;5016125;28;20782;-56
2021/12/07 13:03:46;;;;;;;2.80;1.80;;;9.00;99.70;;;;;;5015039;28;20549;-57
2021/12/07 13:06:14;;;;;;;4.27;1.80;;;9.20;99.90;;;;;;5015286;28;20481;-55
2021/12/07 13:08:59;;;;;;;4.70;1.80;;;9.40;99.40;;;;;;5016106;28;20480;-53
2021/12/07 13:11:34;;;;;;;3.27;1.20;;;9.30;99.90;;;;;;5016298;28;20394;-56
2021/12/07 13:14:00;;;;;;;3.50;2.00;;;9.30;99.30;;;;;;5013904;28;20763;-57
2021/12/07 13:16:26;;;;;;;4.10;1.43;;;9.20;99.80;;;;;;4981476;28;20459;-54
2021/12/07 13:19:01;;;;;;;9.77;1.77;;;9.30;98.50;;;;;;5014280;28;20416;-52
2021/12/07 13:21:28;;;;;;;5.70;1.90;;;9.20;97.90;;;;;;4997982;28;20458;-53
2021/12/07 13:24:06;;;;;;;8.37;2.63;;;9.10;98.80;;;;;;4996595;28;20452;-52
2021/12/07 13:26:34;;;;;;;4.57;1.57;;;9.10;99.00;;;;;;4997977;28;20799;-52
2021/12/07 13:29:11;;;;;;;5.13;1.97;;;9.10;98.60;;;;;;5014073;28;20463;-54
2021/12/07 13:31:41;;;;;;;5.10;1.60;;;9.20;99.50;;;;;;5014978;28;20422;-54
2021/12/07 13:34:08;;;;;;;3.30;1.80;;;9.10;99.40;;;;;;4997812;28;20410;-55
2021/12/07 13:36:47;;;;;;;2.73;1.67;;;8.90;99.40;;;;;;5012341;28;20557;-54
2021/12/07 13:39:12;;;;;;;2.70;1.37;;;8.80;99.70;;;;;;4978607;28;20512;-54
2021/12/07 13:42:03;;;;;;;3.40;1.50;;;8.60;99.90;;;;;;4995585;28;20435;-52
2021/12/07 13:44:31;;;;;;;3.30;1.80;;;8.90;99.50;;;;;;5007879;28;20183;-57
2021/12/07 13:47:00;;;;;;;3.80;1.70;;;8.90;99.40;;;;;;4997213;28;20907;-53
2021/12/07 13:49:26;;;;;;;8.10;2.10;;;8.80;99.90;;;;;;4996286;28;20614;-56
2021/12/07 13:51:53;;;;;;;5.43;1.93;;;8.80;99.90;;;;;;4997150;28;20516;-54
2021/12/07 13:54:20;;;;;;;7.57;2.40;;;8.50;99.90;;;;;;4996262;28;20195;-56
2021/12/07 13:56:48;;;;;;;6.47;1.70;;;8.50;99.90;;;;;;4980240;28;20425;-52
2021/12/07 13:59:17;;;;;;;7.20;1.90;;;8.40;99.90;;;;;;4996935;28;20438;-56
2021/12/07 14:01:50;;;;;;;4.10;1.57;;;8.10;99.90;;;;;;4980324;28;20453;-53
2021/12/07 14:04:16;;;;;;;5.53;1.63;;;8.00;99.90;;;;;;5009725;28;20417;-53
2021/12/07 14:06:49;;;;;;;5.90;1.57;;;8.10;99.90;;;;;;4961835;28;20433;-53
2021/12/07 14:09:16;;;;;;;5.23;1.53;;;8.00;99.90;;;;;;4997321;28;20218;-52
2021/12/07 14:11:42;;;;;;;6.93;2.10;;;7.80;99.90;;;;;;5014411;28;20463;-52
2021/12/07 14:14:14;;;;;;;2.90;1.50;;;7.90;99.90;;;;;;4997079;28;20413;-58
2021/12/07 14:16:42;;;;;;;3.30;1.90;;;7.80;99.90;;;;;;4995569;28;20210;-58
2021/12/07 14:19:08;;;;;;;3.70;1.93;;;7.80;99.90;;;;;;4991902;28;20434;-58
2021/12/07 14:21:34;;;;;;;4.60;1.63;;;7.80;99.90;;;;;;4997655;28;20754;-58
2021/12/07 14:24:08;;;;;;;4.20;2.03;;;7.90;99.90;;;;;;4987700;28;20273;-55
2021/12/07 14:26:36;;;;;;;3.97;1.90;;;7.90;99.90;;;;;;5013659;28;20181;-57
2021/12/07 14:29:08;;;;;;;5.60;1.83;;;7.70;99.90;;;;;;5013510;28;20470;-55
2021/12/07 14:31:41;;;;;;;3.63;1.70;;;7.50;99.90;;;;;;4996002;28;20439;-57
2021/12/07 14:34:22;;;;;;;5.07;1.97;;;7.40;99.90;;;;;;5011908;23;20817;-52
2021/12/07 14:36:50;;;;;;;3.83;1.73;;;7.30;99.90;;;;;;5013279;28;20434;-53
2021/12/07 14:39:21;;;;;;;6.10;1.90;;;7.40;99.90;;;;;;4981053;28;20419;-57
2021/12/07 14:41:51;;;;;;;3.00;1.80;;;7.40;99.90;;;;;;5014354;28;20947;-59
2021/12/07 14:44:19;;;;;;;2.00;1.63;;;7.20;99.90;;;;;;4963497;28;20480;-58
2021/12/07 14:46:46;;;;;;;2.93;1.67;;;7.20;99.90;;;;;;4962212;28;20426;-55
2021/12/07 14:49:16;;;;;;;5.87;1.90;;;7.20;99.90;;;;;;4972892;28;20456;-58
2021/12/07 14:51:43;;;;;;;3.70;1.77;;;7.10;99.90;;;;;;4993440;28;20424;-58